createdAt,value
2018-04-28T00:01:39.060Z,1.75
2018-04-28T00:04:06.452Z,2.03
2018-04-28T00:06:34.640Z,1.50
2018-04-28T00:09:02.049Z,1.57
2018-04-28T00:11:29.436Z,1.77
2018-04-28T00:13:56.935Z,2.20
2018-04-28T00:16:25.105Z,2.22
2018-04-28T00:19:02.840Z,1.77
2018-04-28T00:21:30.947Z,2.47
2018-04-28T00:23:58.429Z,2.10
2018-04-28T00:26:25.982Z,1.80
2018-04-28T00:28:54.097Z,1.87
2018-04-28T00:34:20.198Z,1.92
2018-04-28T00:37:01.131Z,1.93
2018-04-28T00:39:28.509Z,2.10
2018-04-28T00:41:57.532Z,1.83
2018-04-28T00:44:29.545Z,1.50
2018-04-28T00:47:18.481Z,2.13
2018-04-28T00:49:50.479Z,1.30
2018-04-28T00:52:33.661Z,2.13
2018-04-28T00:55:05.600Z,5.10
2018-04-28T01:00:44.706Z,2.12
2018-04-28T01:03:12.087Z,1.90
2018-04-28T01:05:46.088Z,1.90
2018-04-28T01:08:13.560Z,1.70
2018-04-28T01:10:40.939Z,2.00
2018-04-28T01:13:11.032Z,1.90
2018-04-28T01:15:38.420Z,1.50
2018-04-28T01:21:05.126Z,1.70
2018-04-28T01:23:39.066Z,1.70
2018-04-28T01:26:13.452Z,1.70
2018-04-28T01:28:47.320Z,1.87
2018-04-28T01:31:29.595Z,2.00
2018-04-28T01:40:12.080Z,1.70
2018-04-28T01:42:45.980Z,1.80
2018-04-28T01:45:23.945Z,1.50
2018-04-28T01:47:58.094Z,1.50
2018-04-28T01:50:25.473Z,1.90
2018-04-28T01:52:59.500Z,2.00
2018-04-28T01:58:41.131Z,1.65
2018-04-28T02:01:16.064Z,1.80
2018-04-28T02:06:57.985Z,1.40
2018-04-28T02:09:25.377Z,1.97
2018-04-28T02:11:55.601Z,1.50
2018-04-28T02:14:27.883Z,1.70
2018-04-28T02:16:59.596Z,1.60
2018-04-28T02:22:28.246Z,1.73
2018-04-28T02:28:20.200Z,1.50
2018-04-28T02:30:49.380Z,1.57
2018-04-28T02:33:16.789Z,1.67
2018-04-28T02:35:55.619Z,1.40
2018-04-28T02:38:28.823Z,1.92
2018-04-28T02:44:06.207Z,1.52
2018-04-28T02:46:37.389Z,2.00
2018-04-28T02:49:12.639Z,1.62
2018-04-28T02:51:48.874Z,1.80
2018-04-28T02:54:19.122Z,1.93
2018-04-28T02:59:48.977Z,1.75
2018-04-28T03:05:18.899Z,1.90
2018-04-28T03:08:01.152Z,1.80
2018-04-28T03:10:39.155Z,2.00
2018-04-28T03:13:26.104Z,1.93
2018-04-28T03:15:59.092Z,2.13
2018-04-28T03:18:36.896Z,2.30
2018-04-28T03:21:04.284Z,1.80
2018-04-28T03:23:38.009Z,1.53
2018-04-28T03:26:07.734Z,2.33
2018-04-28T03:28:47.702Z,1.67
2018-04-28T03:31:19.069Z,1.77
2018-04-28T03:37:08.025Z,2.03
2018-04-28T03:39:36.328Z,1.90
2018-04-28T03:42:03.707Z,1.90
2018-04-28T03:44:32.574Z,1.50
2018-04-28T03:49:58.307Z,1.60
2018-04-28T03:52:25.695Z,2.03
2018-04-28T03:54:55.785Z,2.20
2018-04-28T03:57:35.661Z,1.70
2018-04-28T04:00:14.838Z,1.70
2018-04-28T04:02:54.002Z,1.70
2018-04-28T04:08:25.913Z,1.60
2018-04-28T04:13:54.012Z,2.00
2018-04-28T04:16:31.947Z,2.00
2018-04-28T04:22:13.956Z,1.80
2018-04-28T04:24:42.713Z,1.70
2018-04-28T04:27:10.935Z,1.93
2018-04-28T04:29:49.023Z,1.70
2018-04-28T04:32:18.412Z,2.65
2018-04-28T04:34:52.439Z,2.08
2018-04-28T04:40:59.623Z,2.33
2018-04-28T04:43:44.786Z,2.67
2018-04-28T04:46:14.659Z,2.10
2018-04-28T04:48:52.076Z,2.33
2018-04-28T04:51:26.056Z,1.90
2018-04-28T04:53:57.817Z,2.20
2018-04-28T04:59:45.912Z,2.40
2018-04-28T05:02:16.904Z,1.80
2018-04-28T05:04:52.779Z,2.20
2018-04-28T05:10:45.294Z,2.40
2018-04-28T05:13:24.485Z,3.90
2018-04-28T05:15:57.504Z,2.47
2018-04-28T05:18:31.884Z,2.50
2018-04-28T05:21:05.260Z,2.43
2018-04-28T05:23:46.119Z,2.42
2018-04-28T05:26:25.382Z,2.30
2018-04-28T05:29:04.660Z,2.30
2018-04-28T05:34:37.972Z,2.60
2018-04-28T05:37:17.261Z,3.17
2018-04-28T05:40:06.331Z,2.40
2018-04-28T05:42:39.232Z,2.67
2018-04-28T05:45:13.190Z,1.67
2018-04-28T05:51:06.332Z,2.92
2018-04-28T05:56:58.630Z,3.65
2018-04-28T05:59:37.924Z,2.20
2018-04-28T06:02:17.660Z,2.30
2018-04-28T06:07:51.482Z,2.85
2018-04-28T06:10:26.582Z,2.37
2018-04-28T06:13:09.896Z,2.97
2018-04-28T06:15:46.566Z,2.77
2018-04-28T06:18:24.424Z,2.50
2018-04-28T06:20:51.821Z,2.53
2018-04-28T06:23:19.227Z,2.77
2018-04-28T06:25:46.611Z,2.83
2018-04-28T06:28:14.017Z,3.78
2018-04-28T06:30:41.423Z,2.30
2018-04-28T06:33:09.676Z,2.50
2018-04-28T06:35:37.593Z,2.27
2018-04-28T06:38:05.332Z,2.30
2018-04-28T06:40:33.653Z,2.15
2018-04-28T06:43:01.304Z,2.30
2018-04-28T06:45:28.711Z,2.92
2018-04-28T06:47:56.097Z,3.70
2018-04-28T06:50:23.500Z,2.80
2018-04-28T06:52:51.051Z,5.10
2018-04-28T06:55:18.646Z,3.50
2018-04-28T06:57:46.028Z,2.30
2018-04-28T07:00:14.323Z,2.17
2018-04-28T07:02:41.703Z,2.57
2018-04-28T07:05:09.104Z,2.43
2018-04-28T07:07:36.860Z,2.40
2018-04-28T07:10:04.618Z,2.40
2018-04-28T07:12:32.012Z,3.10
2018-04-28T07:14:59.406Z,7.73
2018-04-28T07:17:26.796Z,2.20
2018-04-28T07:19:54.197Z,5.33
2018-04-28T07:22:21.573Z,2.13
2018-04-28T07:24:50.147Z,2.27
2018-04-28T07:27:17.544Z,5.87
2018-04-28T07:29:44.944Z,1.70
2018-04-28T07:32:12.336Z,2.10
2018-04-28T07:34:39.739Z,3.55
2018-04-28T07:37:08.001Z,3.13
2018-04-28T07:39:35.369Z,2.20
2018-04-28T07:42:02.763Z,5.75
2018-04-28T07:44:30.160Z,2.87
2018-04-28T07:46:57.561Z,2.63
2018-04-28T07:49:24.972Z,3.23
2018-04-28T07:51:52.359Z,1.90
2018-04-28T07:54:19.748Z,2.33
2018-04-28T07:56:47.141Z,2.33
2018-04-28T07:59:15.521Z,2.47
2018-04-28T08:01:42.907Z,2.10
2018-04-28T08:04:10.289Z,2.10
2018-04-28T08:06:37.724Z,2.10
2018-04-28T08:09:05.301Z,2.20
2018-04-28T08:11:32.684Z,2.37
2018-04-28T08:14:00.080Z,2.43
2018-04-28T08:16:27.553Z,1.90
2018-04-28T08:18:54.928Z,2.62
2018-04-28T08:21:22.333Z,2.47
2018-04-28T08:23:49.763Z,2.10
2018-04-28T08:26:17.152Z,2.53
2018-04-28T08:28:45.468Z,1.70
2018-04-28T08:31:12.852Z,2.07
2018-04-28T08:33:40.404Z,2.00
2018-04-28T08:36:07.820Z,2.47
2018-04-28T08:38:35.213Z,2.00
2018-04-28T08:41:02.606Z,2.00
2018-04-28T08:43:30.014Z,2.12
2018-04-28T08:45:57.413Z,2.97
2018-04-28T08:48:24.792Z,2.53
2018-04-28T08:50:52.183Z,2.07
2018-04-28T08:53:19.588Z,2.10
2018-04-28T08:55:46.993Z,2.30
2018-04-28T08:58:14.366Z,2.83
2018-04-28T09:00:57.376Z,2.27
2018-04-28T09:03:24.761Z,1.90
2018-04-28T09:05:52.214Z,1.90
2018-04-28T09:08:19.593Z,2.57
2018-04-28T09:10:47.002Z,2.00
2018-04-28T09:13:14.392Z,1.90
2018-04-28T09:15:41.855Z,2.00
2018-04-28T09:18:09.257Z,2.60
2018-04-28T09:20:36.644Z,1.93
2018-04-28T09:23:04.032Z,2.10
2018-04-28T09:25:31.441Z,2.20
2018-04-28T09:27:58.827Z,2.25
2018-04-28T09:30:26.230Z,2.27
2018-04-28T09:32:54.169Z,2.08
2018-04-28T09:35:21.557Z,2.17
2018-04-28T09:37:48.947Z,2.27
2018-04-28T09:40:16.331Z,2.17
2018-04-28T09:42:43.852Z,2.13
2018-04-28T09:45:11.237Z,2.77
2018-04-28T09:47:38.639Z,2.20
2018-04-28T09:50:06.021Z,2.40
2018-04-28T09:52:33.558Z,3.23
2018-04-28T09:55:00.938Z,2.37
2018-04-28T09:57:28.336Z,2.70
2018-04-28T09:59:55.910Z,2.25
2018-04-28T10:02:23.296Z,2.83
2018-04-28T10:04:55.145Z,2.80
2018-04-28T10:07:22.545Z,2.60
2018-04-28T10:09:49.937Z,3.00
2018-04-28T10:12:17.448Z,2.70
2018-04-28T10:14:44.853Z,2.63
2018-04-28T10:17:12.251Z,3.17
2018-04-28T10:19:39.632Z,2.07
2018-04-28T10:22:08.709Z,2.57
2018-04-28T10:24:36.099Z,2.90
2018-04-28T10:27:03.527Z,4.07
2018-04-28T10:29:31.108Z,3.77
2018-04-28T10:31:58.509Z,3.40
2018-04-28T10:34:26.016Z,2.97
2018-04-28T10:36:53.697Z,3.13
2018-04-28T10:39:21.088Z,3.07
2018-04-28T10:41:48.496Z,3.17
2018-04-28T10:44:15.894Z,3.70
2018-04-28T10:46:43.421Z,3.33
2018-04-28T10:52:03.472Z,3.37
2018-04-28T10:54:31.101Z,3.40
2018-04-28T10:56:58.552Z,2.80
2018-04-28T10:59:25.873Z,4.17
2018-04-28T11:01:53.259Z,3.47
2018-04-28T11:04:20.855Z,3.37
2018-04-28T11:06:48.261Z,4.20
2018-04-28T11:09:15.641Z,4.07
2018-04-28T11:11:43.042Z,3.97
2018-04-28T11:14:10.436Z,3.37
2018-04-28T11:16:37.836Z,3.33
2018-04-28T11:19:05.234Z,4.30
2018-04-28T11:21:33.181Z,3.40
2018-04-28T11:24:00.710Z,4.10
2018-04-28T11:26:28.099Z,3.53
2018-04-28T11:28:55.640Z,3.50
2018-04-28T11:31:23.008Z,4.27
2018-04-28T11:33:51.315Z,4.20
2018-04-28T11:36:18.709Z,3.93
2018-04-28T11:38:46.223Z,3.55
2018-04-28T11:41:13.604Z,3.50
2018-04-28T11:43:41.059Z,4.50
2018-04-28T11:46:08.473Z,4.60
2018-04-28T11:48:35.971Z,4.03
2018-04-28T11:51:03.385Z,5.63
2018-04-28T11:53:30.781Z,3.60
2018-04-28T11:55:59.737Z,3.95
2018-04-28T11:58:27.146Z,3.90
2018-04-28T12:00:54.552Z,5.97
2018-04-28T12:03:22.061Z,4.93
2018-04-28T12:05:49.515Z,5.03
2018-04-28T12:08:16.844Z,4.25
2018-04-28T12:10:44.211Z,4.20
2018-04-28T12:13:11.712Z,5.00
2018-04-28T12:15:40.288Z,4.62
2018-04-28T12:18:07.676Z,4.10
2018-04-28T12:20:35.070Z,4.10
2018-04-28T12:23:02.469Z,4.73
2018-04-28T12:25:29.868Z,5.17
2018-04-28T12:27:57.272Z,6.67
2018-04-28T12:30:24.755Z,4.75
2018-04-28T12:32:52.152Z,6.23
2018-04-28T12:35:19.532Z,4.93
2018-04-28T12:37:47.064Z,4.10
2018-04-28T12:40:14.449Z,4.67
2018-04-28T12:42:41.921Z,3.17
2018-04-28T12:45:09.317Z,4.50
2018-04-28T12:47:36.876Z,4.60
2018-04-28T12:50:04.265Z,5.30
2018-04-28T12:52:31.653Z,3.70
2018-04-28T12:54:59.044Z,4.57
2018-04-28T12:57:26.531Z,4.97
2018-04-28T12:59:53.890Z,6.07
2018-04-28T13:02:21.272Z,5.63
2018-04-28T13:04:48.734Z,5.20
2018-04-28T13:07:16.119Z,6.00
2018-04-28T13:09:44.534Z,5.07
2018-04-28T13:12:12.186Z,4.37
2018-04-28T13:14:39.572Z,4.53
2018-04-28T13:17:06.983Z,3.83
2018-04-28T13:19:34.368Z,4.33
2018-04-28T13:24:54.467Z,4.97
2018-04-28T13:27:21.851Z,4.50
2018-04-28T13:29:49.297Z,4.77
2018-04-28T13:32:16.941Z,3.60
2018-04-28T13:34:44.343Z,4.90
2018-04-28T13:37:11.746Z,4.50
2018-04-28T13:39:39.213Z,5.03
2018-04-28T13:45:06.773Z,4.12
2018-04-28T13:47:36.269Z,5.37
2018-04-28T13:50:03.684Z,4.80
2018-04-28T13:52:31.083Z,4.00
2018-04-28T13:54:58.751Z,4.10
2018-04-28T13:57:26.135Z,4.20
2018-04-28T13:59:53.537Z,4.37
2018-04-28T14:02:20.918Z,3.23
2018-04-28T14:04:48.553Z,4.37
2018-04-28T14:07:15.948Z,3.37
2018-04-28T14:09:43.375Z,4.40
2018-04-28T14:12:10.774Z,4.37
2018-04-28T14:14:38.244Z,4.03
2018-04-28T14:17:05.629Z,4.03
2018-04-28T14:19:34.120Z,3.20
2018-04-28T14:22:01.541Z,3.60
2018-04-28T14:24:28.956Z,3.50
2018-04-28T14:26:56.356Z,3.73
2018-04-28T14:29:23.750Z,3.60
2018-04-28T14:31:51.185Z,4.17
2018-04-28T14:34:18.594Z,3.50
2018-04-28T14:36:45.973Z,2.97
2018-04-28T14:39:13.380Z,4.00
2018-04-28T14:41:40.777Z,2.97
2018-04-28T14:44:08.179Z,3.00
2018-04-28T14:46:35.580Z,3.57
2018-04-28T14:49:03.270Z,3.15
2018-04-28T14:51:30.660Z,2.77
2018-04-28T14:53:58.069Z,3.20
2018-04-28T14:56:25.615Z,2.60
2018-04-28T14:58:53.052Z,2.53
2018-04-28T15:01:20.489Z,3.03
2018-04-28T15:03:47.832Z,2.93
2018-04-28T15:06:15.233Z,2.50
2018-04-28T15:08:42.618Z,2.77
2018-04-28T15:11:10.018Z,2.90
2018-04-28T15:13:37.432Z,2.90
2018-04-28T15:16:05.099Z,3.20
2018-04-28T15:18:32.718Z,2.63
2018-04-28T15:21:00.113Z,2.30
2018-04-28T15:23:27.484Z,2.57
2018-04-28T15:25:55.325Z,2.97
2018-04-28T15:28:22.785Z,3.12
2018-04-28T15:30:50.131Z,4.30
2018-04-28T15:35:51.417Z,2.03
2018-04-28T15:38:18.806Z,2.37
2018-04-28T15:40:46.527Z,2.40
2018-04-28T15:43:13.946Z,2.90
2018-04-28T15:45:41.330Z,2.45
2018-04-28T15:48:08.734Z,2.60
2018-04-28T15:50:37.167Z,2.35
2018-04-28T15:53:04.567Z,2.53
2018-04-28T15:55:31.961Z,2.10
2018-04-28T15:58:00.101Z,2.50
2018-04-28T16:00:27.490Z,2.63
2018-04-28T16:02:54.879Z,2.47
2018-04-28T16:05:22.290Z,3.28
2018-04-28T16:07:49.680Z,2.57
2018-04-28T16:10:17.077Z,2.42
2018-04-28T16:12:44.473Z,2.33
2018-04-28T16:15:11.872Z,2.23
2018-04-28T16:17:39.263Z,1.90
2018-04-28T16:20:06.659Z,2.10
2018-04-28T16:22:34.061Z,2.50
2018-04-28T16:25:02.206Z,1.83
2018-04-28T16:27:29.627Z,2.50
2018-04-28T16:29:57.020Z,8.37
2018-04-28T16:32:24.660Z,2.50
2018-04-28T16:34:52.062Z,2.93
2018-04-28T16:37:19.461Z,2.43
2018-04-28T16:39:47.056Z,2.10
2018-04-28T16:42:14.431Z,2.70
2018-04-28T16:44:41.818Z,3.00
2018-04-28T16:47:09.221Z,1.87
2018-04-28T16:49:36.742Z,1.90
2018-04-28T16:52:04.962Z,2.20
2018-04-28T16:54:32.355Z,1.87
2018-04-28T16:56:59.787Z,2.47
2018-04-28T16:59:27.321Z,2.72
2018-04-28T17:01:54.805Z,1.70
2018-04-28T17:04:22.199Z,2.10
2018-04-28T17:06:49.932Z,2.30
2018-04-28T17:09:17.320Z,2.30
2018-04-28T17:11:45.413Z,4.07
2018-04-28T17:14:12.800Z,2.23
2018-04-28T17:16:40.192Z,2.00
2018-04-28T17:19:07.580Z,3.03
2018-04-28T17:21:34.972Z,2.00
2018-04-28T17:24:02.508Z,2.40
2018-04-28T17:26:29.919Z,2.40
2018-04-28T17:28:57.292Z,2.00
2018-04-28T17:31:24.721Z,2.33
2018-04-28T17:33:52.494Z,2.50
2018-04-28T17:36:19.873Z,2.95
2018-04-28T17:38:47.259Z,2.50
2018-04-28T17:41:14.665Z,2.55
2018-04-28T17:43:42.052Z,2.00
2018-04-28T17:46:09.453Z,2.73
2018-04-28T17:48:36.847Z,2.37
2018-04-28T17:51:04.255Z,2.72
2018-04-28T17:53:31.647Z,2.80
2018-04-28T17:55:59.037Z,3.17
2018-04-28T17:58:26.934Z,3.60
2018-04-28T18:00:55.968Z,2.57
2018-04-28T18:03:23.378Z,2.83
2018-04-28T18:05:50.961Z,3.33
2018-04-28T18:08:19.052Z,3.28
2018-04-28T18:10:46.429Z,3.53
2018-04-28T18:13:13.831Z,3.40
2018-04-28T18:15:41.214Z,3.47
2018-04-28T18:18:08.605Z,2.97
2018-04-28T18:20:36.128Z,2.60
2018-04-28T18:23:03.773Z,4.10
2018-04-28T18:25:31.151Z,3.70
2018-04-28T18:27:58.540Z,3.07
2018-04-28T18:30:26.022Z,2.30
2018-04-28T18:32:53.416Z,2.83
2018-04-28T18:35:20.804Z,4.70
2018-04-28T18:37:48.241Z,2.20
2018-04-28T18:40:16.027Z,3.47
2018-04-28T18:42:43.429Z,6.77
2018-04-28T18:45:11.515Z,4.30
2018-04-28T18:47:38.952Z,3.83
2018-04-28T18:50:06.802Z,3.53
2018-04-28T18:52:34.191Z,7.90
2018-04-28T18:55:01.641Z,5.77
2018-04-28T18:57:29.036Z,3.57
2018-04-28T18:59:56.452Z,2.58
2018-04-28T19:02:23.839Z,3.60
2018-04-28T19:04:51.235Z,2.00
2018-04-28T19:07:18.629Z,2.57
2018-04-28T19:09:47.012Z,4.18
2018-04-28T19:12:16.108Z,2.97
2018-04-28T19:14:44.240Z,3.90
2018-04-28T19:17:11.793Z,5.93
2018-04-28T19:19:39.180Z,3.10
2018-04-28T19:22:06.596Z,4.90
2018-04-28T19:24:33.977Z,3.05
2018-04-28T19:27:01.423Z,9.35
2018-04-28T19:29:28.824Z,5.93
2018-04-28T19:31:56.216Z,4.13
2018-04-28T19:34:23.620Z,3.07
2018-04-28T19:36:50.991Z,3.33
2018-04-28T19:39:18.392Z,3.00
2018-04-28T19:41:45.799Z,3.43
2018-04-28T19:44:13.411Z,3.47
2018-04-28T19:46:40.819Z,4.03
2018-04-28T19:49:08.199Z,3.60
2018-04-28T19:51:35.601Z,2.83
2018-04-28T19:54:02.998Z,5.37
2018-04-28T22:02:37.040Z,2.55
2018-04-28T22:05:04.454Z,2.20
2018-04-28T22:07:31.832Z,1.80
2018-04-28T22:09:59.224Z,2.20
2018-04-28T22:12:26.614Z,1.85
2018-04-28T22:14:54.796Z,1.83
2018-04-28T22:17:22.184Z,1.37
2018-04-28T22:19:49.569Z,1.80
2018-04-28T22:22:17.443Z,1.60
2018-04-28T22:24:44.839Z,1.50
2018-04-28T22:27:12.230Z,1.70
2018-04-28T22:29:39.623Z,1.67
2018-04-28T22:32:07.358Z,1.57
2018-04-28T22:34:37.657Z,3.20
2018-04-28T22:37:05.043Z,2.00
2018-04-28T22:39:32.440Z,2.27
2018-04-28T22:41:59.908Z,1.95
2018-04-28T22:44:27.340Z,2.40
2018-04-28T22:46:54.844Z,2.43
2018-04-28T22:49:22.239Z,2.05
2018-04-28T22:51:49.628Z,2.37
2018-04-28T22:54:17.096Z,3.33
2018-04-28T22:56:44.477Z,3.43
2018-04-28T22:59:11.867Z,4.20
2018-04-28T23:01:39.309Z,4.40
2018-04-28T23:04:06.925Z,4.28
2018-04-28T23:06:34.319Z,3.70
2018-04-28T23:09:01.699Z,3.53
2018-04-28T23:11:29.091Z,4.90
2018-04-28T23:13:56.544Z,6.07
2018-04-28T23:16:23.940Z,5.27
2018-04-28T23:18:51.319Z,5.07
2018-04-28T23:21:18.821Z,5.40
2018-04-28T23:23:46.200Z,6.57
2018-04-28T23:32:19.717Z,6.70
2018-04-28T23:34:47.118Z,7.90
2018-04-28T23:37:15.204Z,8.07
2018-04-28T23:39:42.599Z,8.80
2018-04-28T23:42:10.982Z,9.10
2018-04-28T23:44:38.432Z,9.50
2018-04-28T23:47:05.819Z,8.80
2018-04-28T23:49:33.221Z,9.27
2018-04-28T23:52:00.615Z,8.90
2018-04-28T23:54:28.010Z,10.47
2018-04-28T23:56:55.420Z,9.33
2018-04-28T23:59:22.803Z,11.25
